Time;durP1;ratioP1;P1;durP2;ratioP2;P2;SDS_P1;SDS_P2;PMS_P1;PMS_P2;Temp;Humidity;BMP_temperature;BMP_pressure;BME280_temperature;BME280_humidity;BME280_pressure;Samples;Min_cycle;Max_cycle;Signal;HPM_P1;HPM_P2
2023/10/13 00:00:25;;;;;;;3.77;2.87;;;;;;;10.17;55.35;93992.13;528371;28;829;-48
2023/10/13 00:00:41;;;;;;;3.10;2.63;;;;;;;10.16;55.71;93994.13;528391;28;1004;-48
2023/10/13 00:00:59;;;;;;;2.92;2.42;;;;;;;10.15;55.34;93989.91;528391;28;868;-48
2023/10/13 00:01:14;;;;;;;3.45;2.35;;;;;;;10.12;55.44;93990.22;528401;28;991;-48
2023/10/13 00:01:30;;;;;;;3.67;2.58;;;;;;;10.11;55.81;93994.25;528835;27;2459;-50
2023/10/13 00:01:52;;;;;;;3.50;3.00;;;;;;;10.12;55.49;93996.47;530536;27;860;-47
2023/10/13 00:02:08;;;;;;;5.68;3.17;;;;;;;10.13;55.58;93991.72;530487;27;830;-48
2023/10/13 00:02:23;;;;;;;4.53;2.97;;;;;;;10.13;55.44;93992.47;530451;27;897;-49
2023/10/13 00:02:39;;;;;;;4.47;2.88;;;;;;;9.91;55.67;93957.75;530497;27;873;-47
2023/10/13 00:02:56;;;;;;;4.30;2.80;;;;;;;10.14;55.87;93985.66;530399;27;880;-48
2023/10/13 00:03:18;;;;;;;3.53;2.70;;;;;;;10.15;55.66;93986.41;530491;27;875;-47
2023/10/13 00:03:34;;;;;;;5.13;2.67;;;;;;;10.16;55.58;93987.88;530474;27;881;-49
2023/10/13 00:03:53;;;;;;;4.68;2.53;;;;;;;10.16;55.85;93982.34;530526;27;860;-49
2023/10/13 00:04:08;;;;;;;4.38;2.83;;;;;;;10.15;55.89;93981.63;530488;27;812;-48
2023/10/13 00:04:24;;;;;;;4.20;3.20;;;;;;;10.17;55.56;93989.38;530491;27;861;-47
2023/10/13 00:04:42;;;;;;;3.85;3.47;;;;;;;10.17;55.78;93986.59;530508;27;828;-48
2023/10/13 00:04:57;;;;;;;3.60;3.17;;;;;;;10.16;55.71;93985.84;530405;27;900;-48
2023/10/13 00:05:12;;;;;;;3.77;3.00;;;;;;;10.17;55.69;93981.84;530528;27;820;-48
2023/10/13 00:05:30;;;;;;;3.93;2.90;;;;;;;10.08;55.75;93968.44;530489;27;884;-49
2023/10/13 00:05:46;;;;;;;3.53;2.75;;;;;;;10.16;55.66;93979.59;530512;27;883;-48
2023/10/13 00:06:03;;;;;;;4.10;2.90;;;;;;;10.17;55.69;93981.09;530507;27;835;-50
2023/10/13 00:06:18;;;;;;;4.38;3.20;;;;;;;10.17;55.55;93978.31;530487;27;909;-48
2023/10/13 00:06:34;;;;;;;4.67;3.13;;;;;;;10.17;55.53;93978.31;530489;27;848;-49
2023/10/13 00:07:02;;;;;;;4.18;2.95;;;;;;;10.09;55.83;93967.16;530488;27;928;-49
2023/10/13 00:07:17;;;;;;;3.47;3.13;;;;;;;10.16;55.83;93979.59;530501;27;988;-48
2023/10/13 00:07:33;;;;;;;3.60;3.05;;;;;;;10.08;55.63;93968.44;530546;27;786;-48
2023/10/13 00:07:49;;;;;;;4.50;3.20;;;;;;;10.18;56.05;93979.81;530427;27;823;-49
2023/10/13 00:08:05;;;;;;;3.83;3.22;;;;;;;10.17;55.87;93981.09;530520;27;889;-49
2023/10/13 00:08:20;;;;;;;3.28;2.97;;;;;;;10.19;55.98;93981.28;530416;27;1165;-48
2023/10/13 00:08:39;;;;;;;3.80;3.00;;;;;;;10.19;56.05;93979.28;530566;27;796;-49
2023/10/13 00:08:55;;;;;;;5.03;3.30;;;;;;;10.18;55.89;93983.31;530449;27;930;-48
2023/10/13 00:09:14;;;;;;;4.82;3.28;;;;;;;10.13;56.10;93966.88;530470;27;1616;-48
2023/10/13 00:09:35;;;;;;;4.07;2.63;;;;;;;10.18;55.81;93974.31;528326;28;856;-48
2023/10/13 00:09:50;;;;;;;3.92;2.72;;;;;;;10.18;55.90;93972.25;528298;28;1129;-48
2023/10/13 00:10:07;;;;;;;5.43;3.00;;;;;;;10.17;55.70;93970.03;528328;28;1068;-49
2023/10/13 00:10:22;;;;;;;5.22;3.05;;;;;;;10.17;55.73;93967.28;528287;28;1635;-50
2023/10/13 00:10:38;;;;;;;3.17;2.87;;;;;;;10.17;55.90;93979.06;528346;28;825;-48
2023/10/13 00:10:57;;;;;;;3.40;2.97;;;;;;;10.18;56.14;93974.31;528269;28;866;-49
2023/10/13 00:11:13;;;;;;;5.38;3.45;;;;;;;10.09;56.09;93969.91;528357;28;904;-48
2023/10/13 00:11:28;;;;;;;4.72;3.25;;;;;;;10.15;56.21;93972.59;528287;28;876;-47
2023/10/13 00:11:44;;;;;;;6.87;3.10;;;;;;;10.16;55.95;93979.59;528368;28;789;-47
2023/10/13 00:12:00;;;;;;;6.68;3.40;;;;;;;10.13;55.98;93972.41;528231;28;845;-49
2023/10/13 00:12:20;;;;;;;4.22;3.38;;;;;;;10.16;55.98;93974.81;528370;28;785;-47
2023/10/13 00:12:37;;;;;;;7.93;3.30;;;;;;;10.13;56.06;93975.91;528313;28;978;-49
2023/10/13 00:12:53;;;;;;;7.60;3.47;;;;;;;10.13;56.23;93975.91;528334;28;869;-48
2023/10/13 00:13:18;;;;;;;3.88;3.25;;;;;;;10.04;55.84;93962.50;528286;28;885;-49
2023/10/13 00:13:50;;;;;;;4.00;2.88;;;;;;;10.12;55.98;93979.94;528322;28;844;-48
2023/10/13 00:14:09;;;;;;;4.32;2.83;;;;;;;10.11;55.93;93978.44;528289;28;877;-47
2023/10/13 00:14:33;;;;;;;2.88;2.58;;;;;;;10.12;56.02;93981.94;528372;28;876;-47
2023/10/13 00:14:50;;;;;;;2.60;2.40;;;;;;;10.11;55.67;93980.47;528330;28;900;-49
2023/10/13 00:15:13;;;;;;;3.08;2.25;;;;;;;10.12;56.11;93973.66;528286;28;968;-50
2023/10/13 00:15:28;;;;;;;4.35;2.50;;;;;;;10.11;55.57;93975.69;528377;28;813;-48
2023/10/13 00:15:59;;;;;;;4.83;2.43;;;;;;;10.12;55.67;93979.19;528306;28;897;-48
2023/10/13 00:16:17;;;;;;;2.45;2.20;;;;;;;10.11;55.49;93978.44;526062;28;841;-48
2023/10/13 00:16:34;;;;;;;2.30;2.00;;;;;;;10.13;55.55;93975.91;526047;28;1725;-47
2023/10/13 00:17:04;;;;;;;2.35;2.15;;;;;;;10.13;55.64;93975.16;526026;28;885;-48
2023/10/13 00:17:20;;;;;;;3.58;2.15;;;;;;;10.12;55.33;93982.69;525932;28;876;-47
2023/10/13 00:17:38;;;;;;;3.95;2.10;;;;;;;10.11;55.32;93975.69;526145;28;798;-48
2023/10/13 00:17:55;;;;;;;3.30;2.20;;;;;;;10.12;55.56;93979.94;526794;28;904;-47
2023/10/13 00:18:14;;;;;;;2.30;1.85;;;;;;;10.11;55.77;93981.22;528292;28;816;-48
2023/10/13 00:18:34;;;;;;;2.45;1.88;;;;;;;10.11;55.47;93975.69;528398;28;860;-49
2023/10/13 00:18:54;;;;;;;2.53;2.03;;;;;;;10.10;55.69;93976.94;528291;28;889;-48
2023/10/13 00:19:13;;;;;;;2.63;1.85;;;;;;;10.09;55.67;93969.91;528310;28;931;-47
2023/10/13 00:19:37;;;;;;;2.17;1.65;;;;;;;10.06;56.08;93971.00;528244;28;1653;-48
2023/10/13 00:19:52;;;;;;;3.22;2.17;;;;;;;10.07;55.92;93977.97;528236;28;877;-47
2023/10/13 00:20:28;;;;;;;4.27;2.20;;;;;;;10.06;55.76;93973.75;528350;28;849;-48
2023/10/13 00:20:48;;;;;;;2.38;1.92;;;;;;;10.06;55.91;93971.00;528203;28;1622;-48
2023/10/13 00:21:12;;;;;;;3.33;1.95;;;;;;;10.06;56.28;93973.75;528246;28;999;-48
2023/10/13 00:21:35;;;;;;;3.90;2.47;;;;;;;10.06;56.28;93973.75;526039;28;898;-48
2023/10/13 00:21:50;;;;;;;3.85;2.28;;;;;;;10.05;56.25;93977.78;526064;28;844;-48
2023/10/13 00:22:10;;;;;;;3.60;2.10;;;;;;;9.98;56.29;93959.13;526089;28;861;-48
2023/10/13 00:22:27;;;;;;;2.42;1.98;;;;;;;10.04;56.37;93972.78;526908;28;1153;-48
2023/10/13 00:22:44;;;;;;;3.38;2.17;;;;;;;9.99;55.97;93960.59;528270;28;939;-48
2023/10/13 00:23:00;;;;;;;2.90;2.15;;;;;;;10.03;56.04;93972.06;528043;28;1765;-48
2023/10/13 00:23:27;;;;;;;2.70;2.15;;;;;;;10.01;56.40;93963.56;529750;27;889;-48
2023/10/13 00:23:53;;;;;;;2.50;2.08;;;;;;;10.03;55.96;93974.09;530344;27;1271;-48
2023/10/13 00:24:12;;;;;;;3.35;1.88;;;;;;;9.94;56.41;93958.69;527872;27;1156;-48
2023/10/13 00:24:29;;;;;;;2.17;1.95;;;;;;;10.00;56.34;93964.84;530175;27;1374;-47
2023/10/13 00:24:45;;;;;;;1.90;1.80;;;;;;;10.00;56.10;93970.38;530477;27;837;-47
2023/10/13 00:25:03;;;;;;;2.47;1.95;;;;;;;9.98;56.13;93964.66;530365;27;935;-47
2023/10/13 00:25:26;;;;;;;2.75;2.03;;;;;;;10.00;56.40;93973.13;530546;27;912;-49
2023/10/13 00:25:49;;;;;;;3.05;2.20;;;;;;;9.97;56.26;93965.16;530371;27;912;-47
2023/10/13 00:26:09;;;;;;;2.28;1.90;;;;;;;9.98;56.70;93974.94;530208;27;1130;-47
2023/10/13 00:26:29;;;;;;;2.28;2.08;;;;;;;9.92;56.77;93975.78;530407;27;947;-47
2023/10/13 00:26:45;;;;;;;2.53;2.20;;;;;;;9.85;57.00;93968.13;530486;27;873;-49
2023/10/13 00:27:04;;;;;;;2.20;2.00;;;;;;;9.87;56.89;93973.84;530407;27;852;-47
2023/10/13 00:27:29;;;;;;;2.35;2.00;;;;;;;9.86;56.97;93969.63;530395;27;912;-48
2023/10/13 00:27:47;;;;;;;3.10;2.28;;;;;;;9.87;57.24;93970.38;530445;27;872;-47
2023/10/13 00:28:03;;;;;;;2.55;1.83;;;;;;;9.84;57.34;93971.44;530348;27;921;-49
2023/10/13 00:28:23;;;;;;;2.25;1.90;;;;;;;9.86;57.08;93979.91;530459;27;833;-47
2023/10/13 00:28:46;;;;;;;2.75;2.03;;;;;;;9.86;57.01;93975.16;530429;27;891;-47
2023/10/13 00:29:18;;;;;;;2.60;1.90;;;;;;;9.86;57.01;93975.16;530379;27;821;-48
2023/10/13 00:29:37;;;;;;;3.33;1.98;;;;;;;9.84;57.17;93971.44;530392;27;841;-48
2023/10/13 00:30:14;;;;;;;2.40;1.98;;;;;;;9.80;57.42;93973.78;530466;27;860;-48
2023/10/13 00:30:33;;;;;;;2.80;1.90;;;;;;;9.79;57.39;93977.78;530245;27;1400;-47
2023/10/13 00:30:52;;;;;;;3.35;2.03;;;;;;;9.74;57.70;93968.38;530454;27;868;-48
2023/10/13 00:31:11;;;;;;;3.55;2.17;;;;;;;9.79;57.65;93980.56;530475;27;888;-48
2023/10/13 00:31:36;;;;;;;4.53;2.13;;;;;;;9.80;57.75;93982.03;530295;27;983;-47
2023/10/13 00:31:52;;;;;;;3.10;1.85;;;;;;;9.79;57.73;93970.28;530431;27;1172;-48
2023/10/13 00:32:11;;;;;;;2.85;2.17;;;;;;;9.81;57.64;93975.28;530417;27;915;-47
2023/10/13 00:32:27;;;;;;;2.50;2.30;;;;;;;9.74;57.73;93970.38;530419;27;873;-47
2023/10/13 00:32:44;;;;;;;2.77;2.27;;;;;;;9.82;57.68;93968.47;530446;27;789;-48
2023/10/13 00:33:00;;;;;;;2.40;1.95;;;;;;;9.78;57.61;93976.31;530359;27;997;-49
2023/10/13 00:33:19;;;;;;;2.17;1.92;;;;;;;9.81;57.55;93976.00;530437;27;828;-47
2023/10/13 00:33:35;;;;;;;3.30;2.42;;;;;;;9.81;57.30;93976.00;530378;27;907;-48
2023/10/13 00:33:55;;;;;;;3.22;2.45;;;;;;;9.76;57.10;93974.09;530395;27;975;-48
2023/10/13 00:34:12;;;;;;;2.92;2.20;;;;;;;9.70;57.56;93972.72;530443;27;931;-48
2023/10/13 00:34:27;;;;;;;2.25;1.88;;;;;;;9.59;57.60;93981.94;530419;27;821;-47
2023/10/13 00:34:42;;;;;;;2.30;1.80;;;;;;;9.52;57.94;93968.78;530439;27;886;-49
2023/10/13 00:34:58;;;;;;;2.83;2.37;;;;;;;9.43;58.04;93965.69;530383;27;912;-47
2023/10/13 00:35:28;;;;;;;4.10;2.70;;;;;;;9.44;58.03;93973.44;530458;27;774;-48
2023/10/13 00:35:44;;;;;;;4.57;2.72;;;;;;;9.42;57.93;93978.72;530425;27;899;-49
2023/10/13 00:36:01;;;;;;;3.75;2.50;;;;;;;9.41;57.80;93971.00;530365;27;885;-48
2023/10/13 00:36:19;;;;;;;2.60;2.28;;;;;;;9.33;57.71;93962.63;530473;27;915;-48
2023/10/13 00:36:34;;;;;;;3.13;2.25;;;;;;;9.41;57.69;93977.25;530361;27;881;-47
2023/10/13 00:37:12;;;;;;;3.50;2.50;;;;;;;9.37;57.79;93971.31;530395;27;904;-47
2023/10/13 00:37:28;;;;;;;3.70;2.60;;;;;;;9.18;58.02;93940.34;530233;27;1433;-47
2023/10/13 00:37:44;;;;;;;3.10;2.55;;;;;;;9.40;57.58;93973.00;530432;27;888;-48
2023/10/13 00:38:04;;;;;;;3.22;2.60;;;;;;;9.44;57.83;93969.94;530378;27;904;-49
2023/10/13 00:38:19;;;;;;;4.38;2.97;;;;;;;9.47;57.65;93972.38;530319;27;837;-49
2023/10/13 00:38:35;;;;;;;4.23;2.90;;;;;;;9.49;57.58;93969.84;530473;27;801;-47
2023/10/13 00:38:52;;;;;;;3.17;2.65;;;;;;;9.49;57.22;93967.09;530395;27;837;-50
2023/10/13 00:39:07;;;;;;;3.20;2.58;;;;;;;9.48;57.25;93962.09;530371;27;963;-49
2023/10/13 00:39:23;;;;;;;3.63;2.70;;;;;;;9.32;57.23;93932.84;530483;27;781;-48
2023/10/13 00:39:45;;;;;;;2.67;2.25;;;;;;;9.59;57.42;93975.69;530385;27;856;-48
2023/10/13 00:40:07;;;;;;;3.80;2.60;;;;;;;9.60;57.01;93968.88;530331;27;970;-48
2023/10/13 00:40:51;;;;;;;3.53;2.72;;;;;;;9.66;57.21;93970.28;530444;27;679;-47
2023/10/13 00:41:34;;;;;;;3.22;2.60;;;;;;;9.67;57.10;93973.78;530431;27;820;-48
2023/10/13 00:41:56;;;;;;;2.78;2.58;;;;;;;9.70;56.60;93972.72;530445;27;876;-49
2023/10/13 00:42:19;;;;;;;3.13;2.45;;;;;;;9.72;56.67;93972.94;530465;27;919;-48
2023/10/13 00:42:50;;;;;;;3.35;2.42;;;;;;;9.73;56.54;93971.66;530349;27;913;-49
2023/10/13 00:43:44;;;;;;;3.65;2.70;;;;;;;9.73;56.48;93971.66;530451;27;860;-48
2023/10/13 00:44:07;;;;;;;4.72;2.83;;;;;;;9.70;56.53;93964.44;530399;27;823;-48
2023/10/13 00:44:37;;;;;;;4.20;2.60;;;;;;;9.72;56.74;93964.66;530364;27;1741;-50
2023/10/13 00:44:54;;;;;;;2.72;2.20;;;;;;;9.48;56.66;93929.78;530399;27;876;-47
2023/10/13 00:45:16;;;;;;;3.65;2.50;;;;;;;9.74;56.40;93965.63;530425;27;824;-48
2023/10/13 00:45:34;;;;;;;3.70;2.60;;;;;;;9.76;56.60;93973.34;530431;27;829;-48
2023/10/13 00:46:08;;;;;;;3.58;2.35;;;;;;;9.75;56.37;93972.59;530317;27;861;-47
2023/10/13 00:46:33;;;;;;;3.50;2.65;;;;;;;9.72;56.67;93959.16;530400;27;904;-48
2023/10/13 00:46:54;;;;;;;3.80;2.67;;;;;;;9.75;56.35;93966.34;528109;28;920;-48
2023/10/13 00:47:16;;;;;;;3.38;2.45;;;;;;;9.75;56.35;93964.34;528197;28;873;-48
2023/10/13 00:47:47;;;;;;;2.83;2.13;;;;;;;9.71;56.29;93963.91;526059;28;923;-49
2023/10/13 00:48:10;;;;;;;2.67;1.90;;;;;;;9.74;56.21;93962.88;526027;28;920;-47
2023/10/13 00:48:33;;;;;;;2.17;1.63;;;;;;;9.65;55.87;93959.78;526101;28;905;-48
2023/10/13 00:48:52;;;;;;;2.35;1.83;;;;;;;9.70;56.28;93961.69;525947;28;885;-47
2023/10/13 00:49:09;;;;;;;3.38;2.55;;;;;;;9.73;56.20;93968.88;525997;28;1760;-47
2023/10/13 00:49:24;;;;;;;5.00;2.47;;;;;;;9.69;56.04;93960.94;527814;28;900;-47
2023/10/13 00:49:39;;;;;;;4.07;1.97;;;;;;;9.63;55.91;93957.56;526023;28;1988;-47
2023/10/13 00:49:56;;;;;;;2.90;1.95;;;;;;;9.66;56.17;93959.25;523892;28;822;-48
2023/10/13 00:50:14;;;;;;;3.35;1.80;;;;;;;9.71;56.02;93974.94;523930;28;900;-48
2023/10/13 00:50:30;;;;;;;2.33;2.00;;;;;;;9.71;56.27;93969.44;521844;28;856;-47
2023/10/13 00:50:47;;;;;;;2.55;2.05;;;;;;;9.71;56.04;93968.69;523880;28;833;-48
2023/10/13 00:51:08;;;;;;;2.78;1.88;;;;;;;9.72;55.94;93968.13;523999;28;845;-48
2023/10/13 00:51:34;;;;;;;2.40;1.75;;;;;;;9.68;55.79;93964.97;523973;28;904;-47
2023/10/13 00:51:50;;;;;;;4.13;2.03;;;;;;;9.71;55.68;93968.69;527227;28;900;-48
2023/10/13 00:52:06;;;;;;;3.40;1.80;;;;;;;9.70;55.56;93964.44;526118;28;733;-47
2023/10/13 00:52:22;;;;;;;1.55;1.42;;;;;;;9.68;55.78;93962.22;527285;28;913;-48
2023/10/13 00:52:41;;;;;;;1.93;1.83;;;;;;;9.68;55.71;93964.25;528115;28;892;-48
2023/10/13 00:52:56;;;;;;;2.13;1.90;;;;;;;9.68;55.47;93964.25;525993;28;912;-47
2023/10/13 00:53:12;;;;;;;2.83;1.98;;;;;;;9.64;55.68;93964.53;525927;28;1763;-49
2023/10/13 00:53:28;;;;;;;2.83;2.13;;;;;;;9.63;55.64;93951.31;525972;28;789;-48
2023/10/13 00:53:44;;;;;;;2.17;1.98;;;;;;;9.64;55.53;93963.78;525987;28;886;-47
2023/10/13 00:54:07;;;;;;;2.40;2.20;;;;;;;9.62;55.84;93967.09;527164;28;867;-48
2023/10/13 00:54:26;;;;;;;2.92;2.05;;;;;;;9.59;55.95;93962.66;528146;28;974;-47
2023/10/13 00:54:47;;;;;;;2.10;1.90;;;;;;;9.58;55.94;93969.44;528128;28;903;-47
2023/10/13 00:55:04;;;;;;;2.17;1.80;;;;;;;9.57;55.85;93964.44;528107;28;939;-48
2023/10/13 00:55:22;;;;;;;2.40;1.83;;;;;;;9.57;55.88;93967.22;526058;28;876;-47
2023/10/13 00:55:41;;;;;;;2.42;1.85;;;;;;;9.57;56.11;93967.22;526022;28;932;-47
2023/10/13 00:55:56;;;;;;;2.53;1.98;;;;;;;9.56;55.88;93971.22;523799;28;932;-48
2023/10/13 00:56:18;;;;;;;2.00;1.80;;;;;;;9.53;55.83;93964.75;521909;28;1023;-48
2023/10/13 00:56:40;;;;;;;2.10;1.90;;;;;;;9.56;55.78;93963.69;521806;28;920;-47
2023/10/13 00:57:12;;;;;;;2.58;2.03;;;;;;;9.56;56.06;93971.22;519748;28;940;-48
2023/10/13 00:57:28;;;;;;;2.22;2.03;;;;;;;9.53;55.86;93964.03;521878;28;932;-48
2023/10/13 00:57:46;;;;;;;3.47;1.95;;;;;;;9.54;56.19;93966.25;522625;28;2465;-48
2023/10/13 00:58:03;;;;;;;3.10;1.70;;;;;;;9.53;55.91;93955.75;526522;28;879;-48
2023/10/13 00:58:22;;;;;;;2.78;2.15;;;;;;;9.55;56.18;93967.00;525985;28;895;-48
2023/10/13 00:58:39;;;;;;;2.95;2.28;;;;;;;9.47;56.03;93955.09;525709;28;975;-48
2023/10/13 00:58:57;;;;;;;4.30;2.17;;;;;;;9.55;56.09;93967.72;527674;28;863;-48
2023/10/13 00:59:19;;;;;;;3.78;2.08;;;;;;;9.43;56.26;93949.16;528118;28;1195;-49
2023/10/13 00:59:41;;;;;;;3.58;1.90;;;;;;;9.50;56.23;93971.34;528146;28;950;-48
2023/10/13 00:59:57;;;;;;;3.15;2.00;;;;;;;9.47;56.60;93969.63;528104;28;880;-49
2023/10/13 01:00:19;;;;;;;3.13;2.08;;;;;;;9.48;56.31;93973.88;529427;27;876;-49
2023/10/13 01:00:46;;;;;;;3.08;2.28;;;;;;;9.49;56.40;93980.88;530376;27;840;-48
2023/10/13 01:01:36;;;;;;;2.70;1.90;;;;;;;9.47;56.41;93980.66;528141;28;710;-48
2023/10/13 01:01:55;;;;;;;2.28;1.77;;;;;;;9.47;56.79;93982.66;528102;28;852;-48
2023/10/13 01:03:07;;;;;;;2.20;2.00;;;;;;;9.47;56.39;93985.41;523755;28;825;-49
2023/10/13 01:03:26;;;;;;;2.75;2.22;;;;;;;9.45;56.37;93974.94;523622;28;1312;-49
2023/10/13 01:03:42;;;;;;;2.42;2.00;;;;;;;9.46;56.76;93975.69;523785;28;1030;-48
2023/10/13 01:04:00;;;;;;;2.00;1.83;;;;;;;9.45;56.52;93974.19;523726;28;915;-47
2023/10/13 01:04:18;;;;;;;2.25;1.85;;;;;;;9.46;56.86;93968.16;523779;28;912;-49
2023/10/13 01:04:34;;;;;;;3.28;2.00;;;;;;;9.43;56.65;93969.22;523750;28;904;-49
2023/10/13 01:04:50;;;;;;;2.92;1.95;;;;;;;9.44;56.52;93976.19;523739;28;884;-48
2023/10/13 01:05:19;;;;;;;2.92;2.05;;;;;;;9.41;56.85;93969.00;523736;28;940;-49
2023/10/13 01:05:37;;;;;;;2.90;2.17;;;;;;;9.36;56.98;93969.06;523741;28;916;-47
2023/10/13 01:05:58;;;;;;;2.63;1.95;;;;;;;9.36;56.82;93966.31;521646;28;1017;-48
2023/10/13 01:06:17;;;;;;;2.63;2.13;;;;;;;9.33;57.00;93968.16;521710;28;919;-48
2023/10/13 01:06:33;;;;;;;2.38;2.17;;;;;;;9.33;57.30;93964.63;521682;28;1063;-47
2023/10/13 01:06:51;;;;;;;2.60;2.40;;;;;;;9.35;57.08;93973.13;521752;28;982;-47
2023/10/13 01:07:07;;;;;;;2.50;2.30;;;;;;;9.35;57.18;93970.38;521658;28;1036;-48
2023/10/13 01:07:24;;;;;;;2.03;1.88;;;;;;;9.33;57.15;93967.41;521736;28;1722;-48
2023/10/13 01:07:39;;;;;;;1.65;1.52;;;;;;;9.30;57.21;93968.44;522067;28;908;-48
2023/10/13 01:07:56;;;;;;;2.20;1.63;;;;;;;9.26;57.23;93970.78;523766;28;848;-47
2023/10/13 01:08:12;;;;;;;2.88;2.13;;;;;;;9.26;56.99;93976.28;523740;28;963;-49
2023/10/13 01:08:37;;;;;;;2.42;2.17;;;;;;;9.25;57.25;93970.03;523755;28;915;-48
2023/10/13 01:09:13;;;;;;;2.25;2.15;;;;;;;9.27;57.33;93970.22;523682;28;945;-47
2023/10/13 01:09:28;;;;;;;2.88;2.33;;;;;;;9.27;57.21;93970.22;528190;28;1169;-49
2023/10/13 01:09:44;;;;;;;2.35;2.15;;;;;;;9.28;57.43;93965.47;528110;28;1917;-48
2023/10/13 01:09:59;;;;;;;2.50;2.10;;;;;;;9.31;57.32;93964.44;528198;28;832;-48
2023/10/13 01:10:15;;;;;;;4.20;2.00;;;;;;;9.32;57.19;93971.41;528199;28;924;-49
2023/10/13 01:10:32;;;;;;;3.55;1.85;;;;;;;9.32;57.33;93971.41;528139;28;860;-48
2023/10/13 01:10:49;;;;;;;2.08;1.88;;;;;;;9.30;57.37;93971.94;528223;28;749;-47
2023/10/13 01:11:07;;;;;;;1.92;1.83;;;;;;;9.34;57.39;93971.63;528142;28;987;-48
2023/10/13 01:11:23;;;;;;;2.17;1.77;;;;;;;9.29;56.95;93966.97;528209;28;841;-48
2023/10/13 01:11:42;;;;;;;2.22;1.90;;;;;;;9.32;57.22;93966.66;528175;28;1205;-49
2023/10/13 01:12:00;;;;;;;2.08;1.90;;;;;;;9.31;56.94;93962.41;528171;28;1696;-48
2023/10/13 01:12:16;;;;;;;3.15;1.95;;;;;;;9.20;56.99;93954.34;528250;28;982;-48
2023/10/13 01:12:31;;;;;;;2.90;2.10;;;;;;;9.33;56.84;93967.41;528233;28;886;-48
2023/10/13 01:12:47;;;;;;;2.13;1.93;;;;;;;9.33;56.80;93970.91;528259;28;924;-47
2023/10/13 01:13:02;;;;;;;1.88;1.70;;;;;;;9.31;56.47;93956.91;528154;28;1608;-49
2023/10/13 01:13:18;;;;;;;1.60;1.50;;;;;;;9.30;56.63;93960.91;528202;28;1804;-48
2023/10/13 01:13:36;;;;;;;2.43;1.87;;;;;;;9.33;56.50;93965.38;525970;28;852;-48
2023/10/13 01:13:53;;;;;;;2.80;2.05;;;;;;;9.35;56.10;93971.13;525931;28;1078;-48
2023/10/13 01:14:11;;;;;;;1.90;1.67;;;;;;;9.36;56.31;93966.31;525981;28;916;-47
2023/10/13 01:14:28;;;;;;;1.52;1.42;;;;;;;9.30;56.21;93955.41;526025;28;884;-48
2023/10/13 01:14:44;;;;;;;2.63;1.85;;;;;;;9.29;56.10;93953.19;525956;28;872;-48
2023/10/13 01:15:07;;;;;;;2.93;2.03;;;;;;;9.35;55.91;93968.34;525997;28;888;-47
2023/10/13 01:15:29;;;;;;;2.45;2.22;;;;;;;9.34;56.27;93966.84;526540;28;887;-48
2023/10/13 01:15:46;;;;;;;2.42;2.03;;;;;;;9.34;56.17;93969.63;528211;28;951;-49
2023/10/13 01:16:07;;;;;;;2.47;1.83;;;;;;;9.25;56.07;93955.53;528178;28;1052;-48
2023/10/13 01:16:26;;;;;;;3.15;1.80;;;;;;;9.36;55.99;93971.84;528204;28;923;-47
2023/10/13 01:16:45;;;;;;;3.03;1.90;;;;;;;9.37;56.19;93976.09;528259;28;843;-48
2023/10/13 01:17:01;;;;;;;2.55;2.03;;;;;;;9.36;56.20;93966.31;528202;28;892;-48
2023/10/13 01:17:18;;;;;;;2.25;1.95;;;;;;;9.37;55.99;93968.56;528097;28;963;-49
2023/10/13 01:17:33;;;;;;;1.92;1.75;;;;;;;9.37;56.17;93974.09;526013;28;825;-48
2023/10/13 01:17:49;;;;;;;3.10;2.00;;;;;;;9.36;55.82;93966.31;525921;28;825;-47
2023/10/13 01:18:12;;;;;;;3.43;1.90;;;;;;;9.35;55.94;93965.59;525993;28;871;-48
2023/10/13 01:18:28;;;;;;;2.90;1.92;;;;;;;9.27;56.11;93961.97;525926;28;948;-48
2023/10/13 01:18:49;;;;;;;3.08;1.90;;;;;;;9.18;56.13;93952.09;525919;28;963;-48
2023/10/13 01:19:05;;;;;;;1.75;1.63;;;;;;;9.29;55.94;93964.94;525895;28;904;-48
2023/10/13 01:19:24;;;;;;;1.55;1.45;;;;;;;9.30;56.09;93971.94;526281;28;836;-49
2023/10/13 01:19:42;;;;;;;2.72;1.70;;;;;;;9.30;56.13;93965.69;528227;28;1167;-48
2023/10/13 01:19:58;;;;;;;2.22;1.88;;;;;;;9.31;56.28;93967.94;528164;28;939;-49
2023/10/13 01:20:24;;;;;;;1.97;1.73;;;;;;;9.32;56.04;93963.13;528135;28;1014;-48
2023/10/13 01:20:45;;;;;;;2.22;2.03;;;;;;;9.26;55.88;93962.50;528228;28;882;-48
2023/10/13 01:21:04;;;;;;;2.30;2.05;;;;;;;9.30;55.71;93962.94;528239;28;874;-47
2023/10/13 01:21:20;;;;;;;3.00;2.25;;;;;;;9.28;55.94;93971.72;528221;28;1724;-48
2023/10/13 01:21:35;;;;;;;5.05;2.33;;;;;;;9.26;56.02;93968.00;528217;28;810;-48
2023/10/13 01:22:01;;;;;;;5.07;2.20;;;;;;;9.21;55.90;93971.59;528226;28;860;-48
2023/10/13 01:22:20;;;;;;;2.33;2.10;;;;;;;9.15;56.01;93969.69;528240;28;911;-47
2023/10/13 01:22:36;;;;;;;2.30;2.05;;;;;;;9.15;56.34;93964.19;528211;28;1106;-49
2023/10/13 01:22:55;;;;;;;2.60;2.13;;;;;;;9.16;56.24;93973.94;528188;28;955;-48
2023/10/13 01:23:24;;;;;;;3.00;2.05;;;;;;;9.17;56.29;93966.41;528191;28;888;-48
2023/10/13 01:23:42;;;;;;;2.40;2.00;;;;;;;9.12;56.32;93956.97;529467;27;1118;-47
2023/10/13 01:23:57;;;;;;;2.30;2.08;;;;;;;9.21;56.24;93971.59;529210;27;1199;-48
2023/10/13 01:24:17;;;;;;;2.63;1.90;;;;;;;9.09;56.38;93946.28;528199;28;876;-50
2023/10/13 01:24:35;;;;;;;3.03;2.13;;;;;;;9.24;56.03;93965.78;528226;28;821;-49
2023/10/13 01:24:51;;;;;;;2.67;2.47;;;;;;;9.25;56.29;93969.31;528179;28;978;-48
2023/10/13 01:25:12;;;;;;;2.53;2.33;;;;;;;9.26;55.95;93965.25;528176;28;880;-48
2023/10/13 01:25:28;;;;;;;2.35;2.15;;;;;;;9.27;55.96;93972.28;528189;28;936;-48
2023/10/13 01:25:44;;;;;;;2.45;2.10;;;;;;;9.20;55.93;93959.84;528272;28;785;-50
2023/10/13 01:26:04;;;;;;;3.05;2.40;;;;;;;9.30;55.98;93968.44;527972;28;1281;-49
2023/10/13 01:26:26;;;;;;;2.97;2.20;;;;;;;9.28;55.75;93962.72;528237;28;893;-48
2023/10/13 01:26:42;;;;;;;1.90;1.80;;;;;;;9.08;55.94;93933.75;528219;28;908;-48
2023/10/13 01:27:03;;;;;;;2.38;2.17;;;;;;;9.21;55.81;93955.81;528220;28;884;-48
2023/10/13 01:27:20;;;;;;;2.47;2.28;;;;;;;9.32;55.47;93974.16;528200;28;900;-49
2023/10/13 01:27:38;;;;;;;2.15;1.95;;;;;;;9.22;55.38;93954.56;528204;28;967;-49
2023/10/13 01:27:54;;;;;;;2.17;1.98;;;;;;;9.23;54.91;93953.28;528100;28;869;-49
2023/10/13 01:28:09;;;;;;;2.50;2.17;;;;;;;9.34;54.95;93968.88;528207;28;821;-48
2023/10/13 01:28:25;;;;;;;2.17;1.97;;;;;;;9.35;55.02;93967.59;528162;28;904;-50
2023/10/13 01:28:46;;;;;;;2.08;1.88;;;;;;;9.35;54.96;93970.38;528161;28;893;-48
2023/10/13 01:29:02;;;;;;;2.47;2.10;;;;;;;9.36;55.10;93974.59;528110;28;896;-48
2023/10/13 01:29:18;;;;;;;2.05;1.83;;;;;;;9.33;55.08;93970.16;528241;28;785;-48
2023/10/13 01:29:34;;;;;;;2.13;1.90;;;;;;;9.31;54.86;93973.44;528158;28;940;-49
2023/10/13 01:29:51;;;;;;;2.42;2.10;;;;;;;9.31;55.07;93972.69;528186;28;1917;-51
2023/10/13 01:30:22;;;;;;;2.67;2.10;;;;;;;9.32;54.88;93974.91;528201;28;809;-48
2023/10/13 01:30:39;;;;;;;2.28;2.03;;;;;;;9.34;55.19;93974.38;528137;28;953;-47
2023/10/13 01:30:55;;;;;;;4.22;2.90;;;;;;;9.33;54.84;93972.91;528106;28;904;-47
2023/10/13 01:31:25;;;;;;;3.58;2.88;;;;;;;9.34;54.97;93968.88;528165;28;896;-48
2023/10/13 01:31:45;;;;;;;5.90;2.13;;;;;;;9.34;54.99;93974.38;528102;28;881;-47
2023/10/13 01:32:01;;;;;;;2.20;1.90;;;;;;;9.26;54.82;93957.75;528126;28;1012;-49
2023/10/13 01:32:18;;;;;;;2.03;1.83;;;;;;;9.29;55.14;93972.47;528167;28;897;-49
2023/10/13 01:32:34;;;;;;;2.22;2.03;;;;;;;9.34;54.77;93969.63;528213;28;841;-48
2023/10/13 01:32:50;;;;;;;2.37;2.17;;;;;;;9.35;54.98;93975.88;528140;28;1206;-48
2023/10/13 01:33:08;;;;;;;2.60;2.40;;;;;;;9.35;55.07;93970.38;528236;28;911;-48
2023/10/13 01:33:27;;;;;;;2.83;2.40;;;;;;;9.34;54.79;93972.38;528143;28;897;-48
2023/10/13 01:33:43;;;;;;;2.63;2.30;;;;;;;9.34;54.68;93975.13;528120;28;830;-48
2023/10/13 01:34:00;;;;;;;2.53;2.33;;;;;;;9.23;54.68;93958.03;528150;28;845;-47
2023/10/13 01:34:23;;;;;;;2.55;2.33;;;;;;;9.34;54.95;93974.38;528245;28;880;-48
2023/10/13 01:34:39;;;;;;;2.30;1.90;;;;;;;9.31;54.94;93972.69;528186;28;833;-48
2023/10/13 01:34:55;;;;;;;2.27;2.07;;;;;;;9.28;54.78;93965.47;528210;28;785;-47
2023/10/13 01:35:11;;;;;;;2.85;2.20;;;;;;;9.28;55.07;93977.25;528096;28;901;-48
2023/10/13 01:35:34;;;;;;;4.23;2.10;;;;;;;9.27;55.43;93973.00;525985;28;805;-48
2023/10/13 01:35:50;;;;;;;2.42;2.08;;;;;;;9.27;55.42;93972.28;525966;28;892;-48
2023/10/13 01:36:12;;;;;;;3.28;2.20;;;;;;;9.18;55.37;93967.16;525944;28;802;-48
2023/10/13 01:36:28;;;;;;;2.67;2.10;;;;;;;9.18;55.29;93968.63;523830;28;983;-49